createdAt,value
2023-02-04T00:00:49.601Z,23.60
2023-02-04T00:04:29.865Z,22.50
2023-02-04T00:07:56.995Z,21.50
2023-02-04T00:11:24.282Z,21.60
2023-02-04T00:14:51.543Z,16.80
2023-02-04T00:18:18.995Z,17.20
2023-02-04T00:21:46.799Z,11.60
2023-02-04T00:25:14.160Z,15.90
2023-02-04T00:28:41.500Z,12.40
2023-02-04T00:32:09.154Z,15.20
2023-02-04T00:35:37.454Z,14.70
2023-02-04T00:39:05.081Z,13.40
2023-02-04T00:42:33.571Z,11.90
2023-02-04T00:46:00.736Z,10.20
2023-02-04T00:49:28.396Z,10.00
2023-02-04T00:52:57.175Z,10.50
2023-02-04T00:56:24.300Z,9.90
2023-02-04T00:59:51.509Z,6.80
2023-02-04T01:03:18.656Z,8.10
2023-02-04T01:06:45.959Z,8.10
2023-02-04T01:10:13.599Z,7.70
2023-02-04T01:13:41.254Z,6.40
2023-02-04T01:17:09.068Z,4.50
2023-02-04T01:20:36.272Z,4.80
2023-02-04T01:24:03.527Z,10.20
2023-02-04T01:27:30.850Z,6.70
2023-02-04T01:30:58.168Z,5.00
2023-02-04T01:34:26.080Z,4.10
2023-02-04T01:37:53.282Z,7.30
2023-02-04T01:41:21.243Z,6.40
2023-02-04T01:44:49.320Z,4.20
2023-02-04T01:48:20.626Z,17.50
2023-02-04T01:51:48.097Z,6.30
2023-02-04T01:55:18.543Z,4.60
2023-02-04T01:58:46.346Z,3.80
2023-02-04T02:02:43.271Z,5.50
2023-02-04T02:06:11.975Z,7.60
2023-02-04T02:09:39.213Z,5.60
2023-02-04T02:13:08.532Z,9.60
2023-02-04T02:16:38.783Z,5.10
2023-02-04T02:20:07.195Z,11.80
2023-02-04T02:23:50.736Z,14.30
2023-02-04T02:27:18.603Z,12.60
2023-02-04T02:30:47.309Z,6.10
2023-02-04T02:34:15.160Z,11.10
2023-02-04T02:37:42.771Z,18.50
2023-02-04T02:41:10.511Z,11.60
2023-02-04T02:44:37.670Z,8.90
2023-02-04T02:48:05.193Z,7.20
2023-02-04T02:51:32.813Z,11.40
2023-02-04T02:55:00.211Z,13.70
2023-02-04T02:58:32.378Z,12.50
2023-02-04T03:02:03.601Z,12.50
2023-02-04T03:05:35.138Z,8.70
2023-02-04T03:09:02.747Z,12.90
2023-02-04T03:12:30.100Z,8.60
2023-02-04T03:15:58.495Z,11.50
2023-02-04T03:19:27.054Z,11.90
2023-02-04T03:22:54.986Z,10.10
2023-02-04T03:26:23.215Z,10.10
2023-02-04T03:29:50.434Z,7.70
2023-02-04T03:33:17.791Z,10.50
2023-02-04T03:36:45.102Z,9.70
2023-02-04T03:40:14.606Z,9.70
2023-02-04T03:43:41.699Z,5.70
2023-02-04T03:47:08.989Z,7.70
2023-02-04T03:50:36.258Z,7.60
2023-02-04T03:54:04.042Z,6.70
2023-02-04T03:57:31.231Z,6.30
2023-02-04T04:00:58.497Z,7.70
2023-02-04T04:04:25.828Z,7.80
2023-02-04T04:07:53.385Z,5.70
2023-02-04T04:11:22.123Z,7.10
2023-02-04T04:14:49.374Z,6.80
2023-02-04T04:18:16.587Z,12.00
2023-02-04T04:21:43.898Z,10.80
2023-02-04T04:25:11.578Z,9.00
2023-02-04T04:28:38.797Z,4.40
2023-02-04T04:32:06.468Z,7.20
2023-02-04T04:35:34.826Z,10.40
2023-02-04T04:39:01.969Z,5.40
2023-02-04T04:42:29.560Z,4.80
2023-02-04T04:45:56.704Z,4.20
2023-02-04T04:49:23.922Z,6.30
2023-02-04T04:52:51.070Z,9.20
2023-02-04T04:56:19.241Z,6.50
2023-02-04T04:59:46.353Z,9.00
2023-02-04T05:03:13.974Z,8.70
2023-02-04T05:06:41.146Z,7.00
2023-02-04T05:10:09.623Z,14.60
2023-02-04T05:13:36.868Z,7.20
2023-02-04T05:17:04.043Z,5.60
2023-02-04T05:20:31.721Z,9.20
2023-02-04T05:23:59.383Z,3.90
2023-02-04T05:27:26.585Z,2.80
2023-02-04T05:30:53.901Z,5.80
2023-02-04T05:34:21.160Z,11.80
2023-02-04T05:37:48.219Z,9.50
2023-02-04T05:41:15.528Z,12.60
2023-02-04T05:44:42.664Z,5.90
2023-02-04T05:48:09.990Z,8.50
2023-02-04T05:51:37.340Z,7.20
2023-02-04T05:55:04.802Z,7.60
2023-02-04T05:58:33.756Z,10.00
2023-02-04T06:02:01.038Z,8.80
2023-02-04T06:05:28.283Z,10.30
2023-02-04T06:08:55.391Z,9.20
2023-02-04T06:12:22.513Z,8.10
2023-02-04T06:15:49.718Z,12.30
2023-02-04T06:19:17.064Z,9.40
2023-02-04T06:22:44.169Z,4.30
2023-02-04T06:26:11.566Z,5.40
2023-02-04T06:29:38.787Z,7.70
2023-02-04T06:33:06.178Z,3.60
2023-02-04T06:36:33.311Z,7.20
2023-02-04T06:40:00.441Z,5.80
2023-02-04T06:43:28.074Z,6.30
2023-02-04T06:46:55.397Z,10.50
2023-02-04T06:50:22.580Z,4.60
2023-02-04T06:53:50.234Z,8.60
2023-02-04T06:57:17.351Z,5.50
2023-02-04T07:00:44.546Z,15.90
2023-02-04T07:04:11.838Z,8.50
2023-02-04T07:07:39.128Z,9.00
2023-02-04T07:11:06.435Z,3.60
2023-02-04T07:14:33.543Z,3.90
2023-02-04T07:18:00.847Z,4.80
2023-02-04T07:21:28.105Z,5.90
2023-02-04T07:24:55.234Z,7.50
2023-02-04T07:28:23.115Z,3.30
2023-02-04T07:31:52.874Z,4.70
2023-02-04T07:35:20.356Z,9.40
2023-02-04T07:38:47.465Z,8.10
2023-02-04T07:42:14.637Z,4.90
2023-02-04T07:45:45.291Z,5.80
2023-02-04T07:49:12.499Z,7.30
2023-02-04T07:52:39.904Z,10.00
2023-02-04T07:56:08.447Z,17.40
2023-02-04T07:59:35.559Z,11.50
2023-02-04T08:03:02.788Z,16.10
2023-02-04T08:06:30.410Z,18.60
2023-02-04T08:09:57.556Z,3.40
2023-02-04T08:13:25.533Z,9.00
2023-02-04T08:16:52.586Z,4.20
2023-02-04T08:20:20.489Z,3.80
2023-02-04T08:23:47.567Z,8.00
2023-02-04T08:27:15.110Z,5.40
2023-02-04T08:30:42.334Z,9.20
2023-02-04T08:34:09.713Z,4.40
2023-02-04T08:37:36.988Z,5.50
2023-02-04T08:41:04.403Z,7.60
2023-02-04T08:44:31.656Z,4.30
2023-02-04T08:47:59.073Z,10.20
2023-02-04T08:51:26.319Z,7.70
2023-02-04T08:54:53.582Z,6.60
2023-02-04T08:58:20.853Z,3.60
2023-02-04T09:01:51.047Z,8.60
2023-02-04T09:05:18.730Z,17.00
2023-02-04T09:08:45.931Z,6.50
2023-02-04T09:12:13.047Z,4.80
2023-02-04T09:15:40.293Z,7.50
2023-02-04T09:19:11.137Z,5.60
2023-02-04T09:22:38.312Z,4.50
2023-02-04T09:26:08.950Z,10.30
2023-02-04T09:29:39.082Z,11.60
2023-02-04T09:33:06.712Z,10.90
2023-02-04T09:36:37.974Z,13.20
2023-02-04T09:40:06.268Z,5.80
2023-02-04T09:43:41.619Z,6.80
2023-02-04T09:47:12.788Z,9.80
2023-02-04T09:50:40.230Z,9.10
2023-02-04T09:54:13.511Z,10.70
2023-02-04T09:57:41.500Z,5.00
2023-02-04T10:01:16.785Z,8.00
2023-02-04T10:04:57.591Z,13.20
2023-02-04T10:08:30.323Z,8.40
2023-02-04T10:11:57.652Z,10.00
2023-02-04T10:15:24.986Z,15.00
2023-02-04T10:18:52.353Z,7.80
2023-02-04T10:22:22.332Z,25.60
2023-02-04T10:25:49.515Z,9.10
2023-02-04T10:29:19.460Z,18.40
2023-02-04T10:32:46.806Z,7.10
2023-02-04T10:36:13.924Z,3.10
2023-02-04T10:39:45.244Z,5.40
2023-02-04T10:43:15.866Z,9.00
2023-02-04T10:46:43.137Z,2.30
2023-02-04T10:50:22.501Z,7.40
2023-02-04T10:54:07.557Z,5.00
2023-02-04T10:57:43.504Z,7.70
2023-02-04T11:01:14.954Z,6.50
2023-02-04T11:04:42.166Z,8.10
2023-02-04T11:08:25.539Z,6.80
2023-02-04T11:11:53.641Z,6.90
2023-02-04T11:15:46.612Z,9.10
2023-02-04T11:19:16.483Z,6.40
2023-02-04T11:22:49.509Z,5.70
2023-02-04T11:26:20.333Z,7.50
2023-02-04T11:29:48.047Z,5.90
2023-02-04T11:33:35.086Z,2.80
2023-02-04T11:37:19.396Z,1.80
2023-02-04T11:40:58.762Z,8.60
2023-02-04T11:44:25.943Z,5.70
2023-02-04T11:47:54.199Z,2.90
2023-02-04T11:51:27.390Z,6.70
2023-02-04T11:54:59.619Z,4.00
2023-02-04T11:58:31.041Z,7.00
2023-02-04T12:02:15.140Z,3.80
2023-02-04T12:05:47.841Z,9.50
2023-02-04T12:09:27.309Z,5.40
2023-02-04T12:12:58.137Z,3.40
2023-02-04T12:16:26.290Z,4.20
2023-02-04T12:19:53.659Z,0.90
2023-02-04T12:23:21.086Z,9.20
2023-02-04T12:26:48.227Z,3.50
2023-02-04T12:30:18.534Z,8.70
2023-02-04T12:33:45.589Z,3.10
2023-02-04T12:37:12.708Z,5.30
2023-02-04T12:40:40.242Z,8.60
2023-02-04T12:44:07.903Z,4.60
2023-02-04T12:47:35.075Z,3.10
2023-02-04T12:51:02.442Z,5.90
2023-02-04T12:54:29.752Z,3.70
2023-02-04T12:57:57.362Z,5.70
2023-02-04T13:01:24.533Z,11.40
2023-02-04T13:04:51.668Z,6.90
2023-02-04T13:08:18.980Z,4.30
2023-02-04T13:11:46.507Z,6.00
2023-02-04T13:15:14.422Z,7.00
2023-02-04T13:18:41.576Z,4.90
2023-02-04T13:22:09.506Z,7.10
2023-02-04T13:25:36.843Z,7.90
2023-02-04T13:29:04.111Z,15.90
2023-02-04T13:32:31.418Z,15.50
2023-02-04T13:36:01.064Z,12.00
2023-02-04T13:39:28.218Z,34.80
2023-02-04T13:42:55.494Z,26.50
2023-02-04T13:46:24.127Z,20.30
2023-02-04T13:49:51.678Z,16.00
2023-02-04T13:53:18.992Z,4.00
2023-02-04T13:56:46.217Z,5.90
2023-02-04T14:00:15.652Z,25.00
2023-02-04T14:03:43.905Z,11.30
2023-02-04T14:07:10.985Z,5.40
2023-02-04T14:10:38.856Z,24.30
2023-02-04T14:14:06.723Z,73.00
2023-02-04T14:17:37.005Z,82.30
2023-02-04T14:21:04.323Z,70.80
2023-02-04T14:24:32.362Z,30.70
2023-02-04T14:28:00.403Z,6.60
2023-02-04T14:31:27.732Z,6.10
2023-02-04T14:34:55.027Z,10.30
2023-02-04T14:38:22.269Z,5.50
2023-02-04T14:41:49.585Z,12.20
2023-02-04T14:45:18.068Z,7.80
2023-02-04T14:48:46.255Z,5.30
2023-02-04T14:52:14.157Z,8.30
2023-02-04T14:55:41.459Z,7.90
2023-02-04T14:59:09.223Z,10.40
2023-02-04T15:02:36.937Z,10.00
2023-02-04T15:06:04.499Z,15.90
2023-02-04T15:09:32.469Z,4.30
2023-02-04T15:12:59.632Z,12.20
2023-02-04T15:16:27.117Z,10.40
2023-02-04T15:19:54.662Z,8.30
2023-02-04T15:23:21.870Z,8.20
2023-02-04T15:26:50.491Z,10.40
2023-02-04T15:30:22.491Z,11.40
2023-02-04T15:33:49.814Z,4.00
2023-02-04T15:37:17.063Z,6.50
2023-02-04T15:40:44.258Z,21.40
2023-02-04T15:44:12.781Z,14.20
2023-02-04T15:47:40.115Z,11.60
2023-02-04T15:51:07.935Z,8.10
2023-02-04T15:54:35.344Z,9.10
2023-02-04T15:58:02.532Z,15.30
2023-02-04T16:01:33.520Z,8.70
2023-02-04T16:05:00.854Z,8.40
2023-02-04T16:08:28.398Z,11.30
2023-02-04T16:11:55.422Z,9.80
2023-02-04T16:15:22.649Z,10.40
2023-02-04T16:18:52.955Z,11.00
2023-02-04T16:22:40.281Z,10.70
2023-02-04T16:26:08.903Z,14.00
2023-02-04T16:29:38.611Z,9.60
2023-02-04T16:33:08.953Z,20.60
2023-02-04T16:36:36.341Z,18.10
2023-02-04T16:40:04.027Z,13.50
2023-02-04T16:43:31.498Z,16.00
2023-02-04T16:46:58.807Z,9.10
2023-02-04T16:50:25.965Z,10.40
2023-02-04T16:53:53.279Z,14.60
2023-02-04T16:57:20.423Z,6.30
2023-02-04T17:00:48.351Z,14.60
2023-02-04T17:04:15.448Z,9.70
2023-02-04T17:07:42.521Z,10.90
2023-02-04T17:11:29.985Z,4.10
2023-02-04T17:14:57.363Z,7.00
2023-02-04T17:18:27.263Z,8.40
2023-02-04T17:21:57.589Z,15.30
2023-02-04T17:25:27.170Z,16.80
2023-02-04T17:28:57.302Z,8.70
2023-02-04T17:32:24.574Z,9.00
2023-02-04T17:35:51.831Z,9.80
2023-02-04T17:39:18.966Z,7.00
2023-02-04T17:42:46.096Z,12.10
2023-02-04T17:46:13.270Z,10.50
2023-02-04T17:49:40.439Z,22.90
2023-02-04T17:53:08.319Z,14.00
2023-02-04T17:56:38.213Z,15.50
2023-02-04T18:00:07.826Z,14.30
2023-02-04T18:03:38.011Z,18.30
2023-02-04T18:07:07.130Z,33.20
2023-02-04T18:10:37.006Z,18.10
2023-02-04T18:14:13.507Z,13.40
2023-02-04T18:17:40.891Z,23.20
2023-02-04T18:21:20.457Z,8.70
2023-02-04T18:24:49.008Z,14.70
2023-02-04T18:28:19.129Z,14.30
2023-02-04T18:31:51.181Z,8.70
2023-02-04T18:35:41.794Z,14.90
2023-02-04T18:39:18.694Z,12.30
2023-02-04T18:42:47.654Z,19.60
2023-02-04T18:46:25.136Z,13.10
2023-02-04T18:49:52.348Z,26.30
2023-02-04T18:53:23.630Z,29.90
2023-02-04T18:56:51.198Z,22.80
2023-02-04T19:00:27.962Z,24.80
2023-02-04T19:03:57.580Z,29.40
2023-02-04T19:07:24.705Z,19.80
2023-02-04T19:10:53.489Z,25.50
2023-02-04T19:14:26.115Z,25.60
2023-02-04T19:17:53.475Z,23.60
2023-02-04T19:21:32.087Z,21.60
2023-02-04T19:25:09.045Z,16.60
2023-02-04T19:28:38.998Z,13.00
2023-02-04T19:32:24.114Z,29.10
2023-02-04T19:36:24.714Z,21.90
2023-02-04T19:39:52.662Z,12.70
2023-02-04T19:43:24.037Z,25.70
2023-02-04T19:46:51.251Z,20.20
2023-02-04T19:50:27.651Z,11.10
2023-02-04T19:53:59.107Z,11.60
2023-02-04T19:57:29.312Z,22.80
2023-02-04T20:01:01.405Z,19.60
2023-02-04T20:04:32.886Z,5.90
2023-02-04T20:08:08.559Z,28.20
2023-02-04T20:11:45.082Z,25.10
2023-02-04T20:15:20.586Z,23.00
2023-02-04T20:18:47.739Z,15.10
2023-02-04T20:22:45.798Z,14.00
2023-02-04T20:26:14.835Z,18.30
2023-02-04T20:29:41.948Z,23.10
2023-02-04T20:33:24.683Z,25.30
2023-02-04T20:36:52.595Z,33.80
2023-02-04T20:40:23.306Z,25.90
2023-02-04T20:43:51.352Z,31.50
2023-02-04T20:47:21.455Z,32.20
2023-02-04T20:50:52.086Z,32.20
2023-02-04T20:54:20.292Z,25.90
2023-02-04T20:57:48.226Z,25.40
2023-02-04T21:01:29.033Z,38.30
2023-02-04T21:05:02.082Z,28.40
2023-02-04T21:08:33.982Z,26.30
2023-02-04T21:12:02.893Z,10.70
2023-02-04T21:15:30.355Z,17.10
2023-02-04T21:18:57.815Z,15.90
2023-02-04T21:22:25.120Z,22.70
2023-02-04T21:25:52.638Z,43.40
2023-02-04T21:29:20.022Z,34.70
2023-02-04T21:32:47.270Z,25.50
2023-02-04T21:36:14.835Z,16.10
2023-02-04T21:39:42.013Z,19.60
2023-02-04T21:43:09.655Z,19.70
2023-02-04T21:46:37.156Z,29.10
2023-02-04T21:50:04.580Z,15.50
2023-02-04T21:53:32.081Z,12.60
2023-02-04T21:57:04.462Z,12.60
2023-02-04T22:00:35.168Z,9.00
2023-02-04T22:04:02.595Z,19.10
2023-02-04T22:07:39.876Z,25.10
2023-02-04T22:11:07.327Z,37.10
2023-02-04T22:14:52.155Z,28.50
2023-02-04T22:18:20.720Z,22.60
2023-02-04T22:21:48.016Z,28.60
2023-02-04T22:25:17.207Z,65.20
2023-02-04T22:28:44.428Z,29.80
2023-02-04T22:32:14.679Z,16.80
2023-02-04T22:35:42.153Z,11.70
2023-02-04T22:39:09.679Z,22.30
2023-02-04T22:42:37.065Z,17.60
2023-02-04T22:46:04.343Z,13.00
2023-02-04T22:49:33.566Z,19.50
2023-02-04T22:53:00.815Z,23.30
2023-02-04T22:56:28.710Z,24.90
2023-02-04T22:59:55.926Z,12.70
2023-02-04T23:03:23.337Z,24.00
2023-02-04T23:06:51.077Z,32.30
2023-02-04T23:10:18.262Z,22.10
2023-02-04T23:13:45.453Z,31.40
2023-02-04T23:17:13.519Z,24.60
2023-02-04T23:20:42.279Z,25.20
2023-02-04T23:24:10.847Z,23.50
2023-02-04T23:27:38.076Z,33.80
2023-02-04T23:31:05.753Z,26.80
2023-02-04T23:34:33.050Z,24.10
2023-02-04T23:38:02.953Z,25.20
2023-02-04T23:41:30.278Z,32.10
2023-02-04T23:44:57.555Z,32.70
2023-02-04T23:48:27.591Z,18.20
2023-02-04T23:51:57.953Z,26.00
2023-02-04T23:55:25.294Z,21.90
2023-02-04T23:58:53.430Z,25.90
